Time;durP1;ratioP1;P1;durP2;ratioP2;P2;SDS_P1;SDS_P2;PMS_P1;PMS_P2;Temp;Humidity;BMP_temperature;BMP_pressure;BME280_temperature;BME280_humidity;BME280_pressure;Samples;Min_cycle;Max_cycle;Signal;HPM_P1;HPM_P2
2021/11/18 00:01:01;;;;;;;35.20;13.90;;;;;;;-3.13;71.19;102197.16;1848175;78;21462;-64
2021/11/18 00:03:30;;;;;;;52.80;16.42;;;;;;;-3.18;71.77;102185.77;1848180;78;21611;-63
2021/11/18 00:05:59;;;;;;;54.93;20.92;;;;;;;-3.18;71.77;102185.77;1848399;77;21505;-63
2021/11/18 00:08:28;;;;;;;39.23;17.15;;;;;;;-3.22;71.34;102179.62;1848060;78;21450;-63
2021/11/18 00:11:04;;;;;;;41.00;17.95;;;;;;;-3.24;71.54;102186.41;1848160;78;21526;-63
2021/11/18 00:13:35;;;;;;;29.18;12.28;;;;;;;-3.26;71.80;102191.91;1848198;78;21153;-63
2021/11/18 00:16:05;;;;;;;37.42;14.28;;;;;;;-3.26;71.80;102191.91;1848135;77;21047;-63
2021/11/18 00:18:36;;;;;;;42.40;17.73;;;;;;;-3.30;72.05;102189.61;1848151;78;21095;-63
2021/11/18 00:21:10;;;;;;;52.85;19.67;;;;;;;-3.31;71.75;102190.41;1848132;78;21054;-64
2021/11/18 00:23:42;;;;;;;56.42;24.37;;;;;;;-3.37;71.72;102179.00;1848145;77;21137;-63
2021/11/18 00:26:11;;;;;;;52.20;20.27;;;;;;;-3.38;72.39;102182.38;1848060;78;21078;-63
2021/11/18 00:28:40;;;;;;;39.95;16.40;;;;;;;-3.43;72.62;102171.00;1848123;78;21043;-63
2021/11/18 00:31:11;;;;;;;42.58;17.12;;;;;;;-3.39;72.14;102184.50;1848095;78;21557;-64
2021/11/18 00:33:41;;;;;;;46.83;17.20;;;;;;;-3.35;71.80;102182.52;1822327;78;21466;-64
2021/11/18 00:36:11;;;;;;;45.17;17.55;;;;;;;-3.37;71.76;102182.87;1848171;78;21536;-63
2021/11/18 00:38:40;;;;;;;45.40;17.60;;;;;;;-3.41;71.85;102172.84;1848246;78;21522;-63
2021/11/18 00:41:09;;;;;;;44.10;18.37;;;;;;;-3.41;71.85;102172.84;1848172;78;21051;-63
2021/11/18 00:43:38;;;;;;;63.92;24.47;;;;;;;-3.46;71.75;102167.91;1848126;78;21035;-65
2021/11/18 00:46:06;;;;;;;46.00;20.23;;;;;;;-3.43;71.72;102161.61;1848063;78;21091;-63
2021/11/18 00:48:35;;;;;;;50.38;20.30;;;;;;;-3.43;71.72;102161.61;1848173;78;21055;-63
2021/11/18 00:51:07;;;;;;;45.23;20.52;;;;;;;-3.43;71.57;102164.56;1848074;77;21115;-63
2021/11/18 00:53:39;;;;;;;47.40;19.85;;;;;;;-3.47;71.41;102158.83;1848196;77;21339;-63
2021/11/18 00:56:08;;;;;;;43.23;17.82;;;;;;;-3.42;71.31;102165.05;1847982;77;21063;-63
2021/11/18 00:58:37;;;;;;;42.83;19.10;;;;;;;-3.39;71.15;102167.77;1848093;77;21437;-63
2021/11/18 01:01:06;;;;;;;61.35;24.67;;;;;;;-3.38;71.15;102164.35;1848200;78;21120;-63
2021/11/18 01:03:35;;;;;;;50.45;21.90;;;;;;;-3.40;71.83;102161.70;1848112;78;21563;-63
2021/11/18 01:06:05;;;;;;;31.77;14.07;;;;;;;-3.44;71.64;102154.68;1848124;78;21051;-63
2021/11/18 01:08:35;;;;;;;51.55;20.62;;;;;;;-3.63;72.00;102145.33;1848268;78;21486;-63
2021/11/18 01:11:13;;;;;;;53.13;19.57;;;;;;;-3.66;72.58;102146.89;1848018;78;21610;-63
2021/11/18 01:13:43;;;;;;;61.37;22.70;;;;;;;-3.70;72.61;102145.88;1843896;77;21086;-63
2021/11/18 01:16:15;;;;;;;55.65;22.40;;;;;;;-3.70;72.61;102145.88;1848253;78;21042;-63
2021/11/18 01:18:44;;;;;;;58.63;22.98;;;;;;;-3.69;72.58;102152.77;1848146;78;21149;-63
2021/11/18 01:21:14;;;;;;;42.40;17.20;;;;;;;-3.71;72.64;102149.26;1848066;77;21621;-64
2021/11/18 01:23:45;;;;;;;36.05;15.30;;;;;;;-3.72;72.59;102148.39;1822810;78;21054;-64
2021/11/18 01:26:17;;;;;;;49.08;19.00;;;;;;;-3.80;72.46;102143.34;1848295;77;21062;-64
2021/11/18 01:28:47;;;;;;;33.88;14.55;;;;;;;-3.86;72.53;102140.91;1848260;77;21162;-63
2021/11/18 01:31:18;;;;;;;25.62;10.93;;;;;;;-3.92;72.63;102141.11;1848173;77;21564;-64
2021/11/18 01:33:48;;;;;;;34.75;15.38;;;;;;;-3.93;72.78;102138.08;1848164;78;21383;-63
2021/11/18 01:36:17;;;;;;;57.27;19.75;;;;;;;-3.93;72.52;102138.08;1848330;77;21059;-63
2021/11/18 01:38:48;;;;;;;49.50;17.92;;;;;;;-3.92;72.48;102141.11;1847398;78;21118;-64
2021/11/18 01:41:27;;;;;;;48.23;17.70;;;;;;;-3.91;72.37;102141.59;1847597;78;21087;-63
2021/11/18 01:43:59;;;;;;;48.73;17.27;;;;;;;-3.91;72.54;102140.30;1848249;78;21043;-63
2021/11/18 01:46:32;;;;;;;42.35;15.68;;;;;;;-3.89;72.47;102143.82;1848117;77;21148;-64
2021/11/18 01:49:03;;;;;;;43.33;16.10;;;;;;;-3.88;72.19;102142.98;1848408;78;21145;-63
2021/11/18 01:51:35;;;;;;;37.10;12.18;;;;;;;-3.84;71.94;102150.43;1848168;77;21078;-63
2021/11/18 01:54:05;;;;;;;37.35;17.85;;;;;;;-3.81;71.87;102147.23;1848251;78;21450;-63
2021/11/18 01:56:37;;;;;;;46.50;17.62;;;;;;;-3.78;71.71;102147.23;1822449;78;21059;-64
2021/11/18 01:59:20;;;;;;;40.30;16.93;;;;;;;-3.76;71.65;102152.04;1848146;78;21133;-63
2021/11/18 02:02:07;;;;;;;40.10;16.10;;;;;;;-3.74;71.57;102151.73;1786417;80;21466;-63
2021/11/18 02:04:55;;;;;;;55.78;19.90;;;;;;;-3.71;71.46;102154.41;1811416;78;21466;-63
2021/11/18 02:07:25;;;;;;;56.05;18.20;;;;;;;-3.81;71.86;102153.56;1760646;78;21223;-63
2021/11/18 02:09:54;;;;;;;44.25;16.87;;;;;;;-3.81;71.86;102153.56;1848042;77;21051;-63
2021/11/18 02:12:25;;;;;;;42.78;15.68;;;;;;;-3.80;71.82;102154.02;1848013;77;21506;-63
2021/11/18 02:14:56;;;;;;;42.00;16.90;;;;;;;-3.83;71.92;102151.34;1847883;78;21144;-63
2021/11/18 02:17:26;;;;;;;39.88;15.30;;;;;;;-3.89;71.91;102154.11;1848076;78;21144;-65
2021/11/18 02:20:00;;;;;;;49.85;17.90;;;;;;;-3.88;71.59;102155.86;1848209;78;21043;-63
2021/11/18 02:22:31;;;;;;;39.33;17.23;;;;;;;-3.88;71.59;102155.86;1848022;78;21526;-63
2021/11/18 02:25:03;;;;;;;47.10;18.12;;;;;;;-3.89;71.70;102156.69;1848050;78;21110;-63
2021/11/18 02:27:33;;;;;;;58.00;21.65;;;;;;;-3.89;71.70;102156.69;1848051;78;21091;-63
2021/11/18 02:30:03;;;;;;;48.20;18.12;;;;;;;-3.82;71.83;102160.80;1847906;77;21083;-64
2021/11/18 02:32:37;;;;;;;50.83;18.15;;;;;;;-3.85;71.86;102136.30;1848143;77;21071;-63
2021/11/18 02:35:09;;;;;;;50.17;17.45;;;;;;;-3.94;71.94;102136.30;1848116;77;21051;-63
2021/11/18 02:37:39;;;;;;;54.05;19.82;;;;;;;-3.86;72.02;102158.91;1847546;76;21513;-63
2021/11/18 02:40:11;;;;;;;59.73;21.75;;;;;;;-3.89;72.20;102150.67;1848038;77;21118;-63
2021/11/18 02:42:41;;;;;;;52.08;18.40;;;;;;;-3.84;72.44;102146.98;1847963;78;21125;-63
2021/11/18 02:45:19;;;;;;;49.55;19.80;;;;;;;-3.81;72.58;102146.72;1848084;77;21047;-63
2021/11/18 02:47:48;;;;;;;46.20;16.25;;;;;;;-3.80;72.66;102141.15;1843045;77;21125;-63
2021/11/18 02:50:20;;;;;;;59.25;19.10;;;;;;;-3.80;72.66;102141.15;1848126;78;21100;-63
2021/11/18 02:52:50;;;;;;;46.40;15.55;;;;;;;-3.77;72.74;102149.88;1858024;76;21121;-63
2021/11/18 02:55:22;;;;;;;43.45;17.95;;;;;;;-3.77;72.55;102149.02;1859845;77;21606;-63
2021/11/18 02:57:51;;;;;;;40.63;17.02;;;;;;;-3.78;72.28;102152.39;1859873;77;21636;-63
2021/11/18 03:00:23;;;;;;;49.45;17.85;;;;;;;-3.80;72.18;102147.20;1859921;77;21058;-63
2021/11/18 03:02:52;;;;;;;39.88;15.48;;;;;;;-3.82;72.31;102150.50;1859896;77;21528;-63
2021/11/18 03:05:22;;;;;;;43.98;17.95;;;;;;;-3.86;72.32;102156.34;1859902;77;21098;-64
2021/11/18 03:07:51;;;;;;;47.40;16.60;;;;;;;-3.87;72.16;102154.19;1859964;77;21583;-64
2021/11/18 03:10:22;;;;;;;43.38;16.57;;;;;;;-3.86;72.20;102148.63;1860066;75;21508;-63
2021/11/18 03:12:52;;;;;;;56.28;16.75;;;;;;;-3.86;72.12;102146.05;1859919;77;21074;-63
2021/11/18 03:15:23;;;;;;;38.33;16.80;;;;;;;-3.86;72.01;102143.47;1859934;77;21555;-63
2021/11/18 03:17:52;;;;;;;47.48;16.32;;;;;;;-3.88;71.90;102148.55;1860001;77;21124;-63
2021/11/18 03:20:24;;;;;;;48.70;16.65;;;;;;;-3.87;71.88;102152.90;1859166;77;21247;-63
2021/11/18 03:22:53;;;;;;;46.20;16.42;;;;;;;-3.86;71.82;102148.63;1860064;77;21038;-64
2021/11/18 03:25:25;;;;;;;59.03;18.73;;;;;;;-3.83;71.78;102152.63;1859889;77;21082;-64
2021/11/18 03:27:57;;;;;;;55.90;19.57;;;;;;;-3.86;71.82;102147.34;1858864;77;21096;-64
2021/11/18 03:30:32;;;;;;;46.08;19.00;;;;;;;-3.90;71.99;102145.91;1859825;77;21078;-64
2021/11/18 03:32:59;;;;;;;46.00;20.20;;;;;;;-3.89;71.91;102146.39;1859752;77;21078;-62
2021/11/18 03:35:29;;;;;;;53.10;20.77;;;;;;;-3.91;72.02;102149.70;1859824;77;21082;-63
2021/11/18 03:38:00;;;;;;;44.20;17.07;;;;;;;-3.91;72.01;102149.31;1859983;77;21120;-63
2021/11/18 03:40:31;;;;;;;36.48;15.95;;;;;;;-3.90;71.92;102147.61;1859925;77;21093;-63
2021/11/18 03:43:00;;;;;;;47.15;15.78;;;;;;;-3.90;71.86;102147.61;1859934;77;21093;-64
2021/11/18 03:45:32;;;;;;;45.25;17.23;;;;;;;-3.88;72.13;102160.13;1859983;77;21051;-64
2021/11/18 03:48:01;;;;;;;47.83;17.65;;;;;;;-3.88;72.13;102160.13;1859987;77;21469;-64
2021/11/18 03:50:31;;;;;;;49.20;17.87;;;;;;;-3.86;72.04;102158.91;1858692;77;21089;-63
2021/11/18 03:53:00;;;;;;;41.08;14.60;;;;;;;-3.88;72.62;102157.14;1865540;75;21145;-63
2021/11/18 03:55:29;;;;;;;43.78;17.57;;;;;;;-3.88;72.62;102157.14;1869376;77;21637;-63
2021/11/18 03:57:59;;;;;;;49.73;17.62;;;;;;;-3.95;72.32;102156.81;1869215;77;21611;-63
2021/11/18 04:00:31;;;;;;;56.63;19.82;;;;;;;-3.98;72.53;102160.56;1869161;77;21528;-63
2021/11/18 04:03:03;;;;;;;57.48;20.17;;;;;;;-3.97;72.77;102168.33;1869290;77;21172;-64
2021/11/18 04:05:37;;;;;;;54.08;18.52;;;;;;;-3.95;72.90;102152.55;1868689;77;21129;-64
2021/11/18 04:08:06;;;;;;;49.13;18.40;;;;;;;-3.95;72.90;102152.55;1796853;80;21090;-65
2021/11/18 04:10:37;;;;;;;47.53;19.62;;;;;;;-3.95;72.61;102157.69;1828338;78;21551;-65
2021/11/18 04:13:07;;;;;;;58.80;21.33;;;;;;;-3.98;72.79;102158.87;1828353;78;21066;-64
2021/11/18 04:15:37;;;;;;;50.35;20.95;;;;;;;-4.00;72.92;102159.21;1828308;78;21575;-65
2021/11/18 04:18:07;;;;;;;65.35;19.62;;;;;;;-4.00;72.86;102159.21;1828416;78;21062;-63
2021/11/18 04:20:37;;;;;;;64.25;22.80;;;;;;;-4.04;72.88;102163.72;1827773;77;21062;-65
2021/11/18 04:23:07;;;;;;;50.67;18.27;;;;;;;-4.05;72.99;102159.41;1828327;78;21058;-65
2021/11/18 04:25:39;;;;;;;43.98;16.87;;;;;;;-4.03;72.96;102158.05;1828060;78;21093;-65
2021/11/18 04:28:10;;;;;;;46.25;16.00;;;;;;;-4.07;72.89;102158.05;1828333;78;21090;-64
2021/11/18 04:30:42;;;;;;;59.40;21.95;;;;;;;-4.12;72.91;102155.67;1828423;78;21445;-64
2021/11/18 04:33:15;;;;;;;46.68;17.40;;;;;;;-4.08;73.11;102154.12;1817335;78;21058;-65
2021/11/18 04:35:44;;;;;;;61.25;21.80;;;;;;;-4.04;73.36;102148.70;1828260;78;21529;-64
2021/11/18 04:38:13;;;;;;;39.23;16.77;;;;;;;-3.96;73.34;102156.37;1828323;78;21054;-64
2021/11/18 04:40:43;;;;;;;64.30;21.77;;;;;;;-3.91;73.03;102154.45;1828419;78;21163;-63
2021/11/18 04:43:13;;;;;;;59.03;20.65;;;;;;;-3.86;73.19;102161.48;1828324;78;21145;-65
2021/11/18 04:45:43;;;;;;;41.42;16.35;;;;;;;-3.82;73.19;102165.95;1828207;78;21070;-64
2021/11/18 04:48:12;;;;;;;55.50;17.48;;;;;;;-3.78;72.94;102162.68;1828478;78;21175;-64
2021/11/18 04:50:41;;;;;;;49.40;18.10;;;;;;;-3.74;72.70;102162.89;1828324;77;21596;-64
2021/11/18 04:53:10;;;;;;;41.18;15.53;;;;;;;-3.74;72.70;102162.89;1824047;78;21216;-64
2021/11/18 04:55:40;;;;;;;51.10;18.95;;;;;;;-3.69;72.88;102172.08;1785560;80;21102;-64
2021/11/18 04:58:09;;;;;;;59.33;18.82;;;;;;;-3.64;72.74;102174.45;1816637;79;21055;-65
2021/11/18 05:00:41;;;;;;;40.45;12.93;;;;;;;-3.55;72.70;102174.83;1785597;80;21616;-64
2021/11/18 05:03:11;;;;;;;41.63;14.63;;;;;;;-3.44;72.57;102162.83;1820212;79;21135;-64
2021/11/18 05:05:40;;;;;;;41.85;15.38;;;;;;;-3.39;72.41;102167.77;1850842;77;21442;-64
2021/11/18 05:08:10;;;;;;;45.73;16.15;;;;;;;-3.32;72.23;102162.02;1850822;77;21128;-64
2021/11/18 05:10:40;;;;;;;38.30;17.60;;;;;;;-3.23;72.07;102163.67;1850631;77;21023;-64
2021/11/18 05:13:09;;;;;;;44.42;23.42;;;;;;;-3.09;71.95;102168.11;1850886;77;21011;-62
2021/11/18 05:15:42;;;;;;;46.50;23.80;;;;;;;-2.73;71.97;102162.23;1849199;76;21486;-62
2021/11/18 05:18:12;;;;;;;51.95;24.18;;;;;;;-2.73;71.97;102162.23;1850779;77;21116;-62
2021/11/18 05:20:42;;;;;;;47.95;24.82;;;;;;;-2.52;71.77;102167.30;1850740;77;21128;-62
2021/11/18 05:23:13;;;;;;;61.65;32.95;;;;;;;-2.25;71.00;102158.84;1850725;77;21055;-62
2021/11/18 05:25:44;;;;;;;64.47;34.48;;;;;;;-1.96;71.39;102150.81;1849275;77;21524;-62
2021/11/18 05:28:13;;;;;;;47.15;29.57;;;;;;;-1.96;71.39;102150.81;1850753;77;21114;-62
2021/11/18 05:30:42;;;;;;;26.12;16.42;;;;;;;-1.31;70.36;102154.31;1850727;77;21555;-62
2021/11/18 05:33:15;;;;;;;42.33;18.40;;;;;;;-0.61;69.32;102150.83;1850731;77;21051;-62
2021/11/18 05:35:46;;;;;;;49.73;20.77;;;;;;;-0.04;67.98;102157.62;1850704;77;21122;-63
2021/11/18 05:38:15;;;;;;;43.65;17.35;;;;;;;0.48;66.71;102152.93;1850806;77;21051;-62
2021/11/18 05:40:46;;;;;;;40.83;17.45;;;;;;;1.05;66.26;102147.41;1852224;76;21051;-62
2021/11/18 05:43:17;;;;;;;42.53;16.15;;;;;;;1.48;63.73;102153.97;1854456;76;21543;-61
2021/11/18 05:48:35;;;;;;;39.15;15.90;;;;;;;2.21;61.11;102150.61;1850791;77;21066;-62
2021/11/18 05:51:07;;;;;;;37.70;17.55;;;;;;;2.49;60.17;102143.29;1850641;77;21099;-62
2021/11/18 05:53:39;;;;;;;37.23;15.00;;;;;;;2.74;59.49;102139.81;1850775;77;21042;-62
2021/11/18 05:56:11;;;;;;;29.48;12.65;;;;;;;3.23;59.65;102141.41;1850852;77;21071;-62
2021/11/18 05:58:42;;;;;;;34.27;14.73;;;;;;;3.77;59.09;102144.69;1850707;77;21047;-62
2021/11/18 06:01:12;;;;;;;34.00;16.37;;;;;;;4.31;58.75;102136.55;1850980;77;21113;-62
2021/11/18 06:03:43;;;;;;;50.52;14.07;;;;;;;4.63;57.40;102133.80;1849948;77;21687;-63
2021/11/18 06:06:14;;;;;;;36.05;15.30;;;;;;;5.00;56.13;102130.59;1854155;76;21608;-62
2021/11/18 06:08:44;;;;;;;44.65;20.45;;;;;;;5.35;54.96;102133.83;1850489;77;21046;-66
2021/11/18 06:11:15;;;;;;;41.95;17.57;;;;;;;5.55;53.86;102124.75;1853100;76;21544;-66
2021/11/18 06:13:48;;;;;;;36.58;15.63;;;;;;;5.91;54.45;102120.08;1860779;76;21519;-63
2021/11/18 06:16:15;;;;;;;38.65;16.77;;;;;;;6.42;54.19;102121.91;1861318;76;21074;-66
2021/11/18 06:18:44;;;;;;;35.98;15.18;;;;;;;6.83;53.35;102116.67;1882492;76;21051;-63
2021/11/18 06:21:13;;;;;;;43.15;16.17;;;;;;;7.07;51.52;102114.89;1847964;76;21502;-63
2021/11/18 06:23:42;;;;;;;37.15;15.65;;;;;;;7.35;51.33;102113.91;1850742;77;21560;-63
2021/11/18 06:26:13;;;;;;;38.67;16.40;;;;;;;7.68;50.39;102105.47;1850700;77;21059;-63
2021/11/18 06:28:43;;;;;;;34.70;15.78;;;;;;;8.26;50.36;102111.23;1850567;77;21165;-62
2021/11/18 06:31:14;;;;;;;42.58;15.40;;;;;;;8.77;50.11;102106.45;1850392;77;21137;-62
2021/11/18 06:33:44;;;;;;;29.70;13.98;;;;;;;9.14;50.28;102106.52;1849305;77;21055;-63
2021/11/18 06:36:13;;;;;;;39.40;14.80;;;;;;;9.49;50.00;102098.66;1849526;77;21489;-62
2021/11/18 06:38:44;;;;;;;32.73;14.98;;;;;;;9.80;49.17;102101.75;1850773;77;21505;-62
2021/11/18 06:41:15;;;;;;;31.50;13.25;;;;;;;10.13;48.18;102095.12;1849496;77;21082;-62
2021/11/18 06:43:45;;;;;;;34.05;14.83;;;;;;;10.37;47.40;102088.62;1845766;78;21144;-62
2021/11/18 06:46:16;;;;;;;33.02;15.15;;;;;;;10.74;46.39;102086.66;1845624;77;21063;-62
2021/11/18 06:48:45;;;;;;;36.58;15.85;;;;;;;11.02;45.92;102086.14;1819686;77;21541;-62
2021/11/18 06:51:19;;;;;;;37.42;13.85;;;;;;;11.30;45.30;102084.27;1815268;79;21090;-62
2021/11/18 06:53:52;;;;;;;31.23;14.23;;;;;;;11.73;45.29;102080.27;1815406;79;21121;-63
2021/11/18 06:56:24;;;;;;;39.40;16.23;;;;;;;12.09;44.91;102078.16;1835358;78;21050;-62
2021/11/18 06:58:53;;;;;;;37.38;15.35;;;;;;;12.42;43.70;102078.23;1835434;78;21045;-63
2021/11/18 07:01:23;;;;;;;35.35;15.20;;;;;;;12.62;43.10;102078.59;1835365;77;21145;-63
2021/11/18 07:03:53;;;;;;;37.00;15.72;;;;;;;12.58;41.50;102077.37;1835563;78;21469;-63
2021/11/18 07:06:24;;;;;;;46.05;15.80;;;;;;;12.50;41.68;102077.58;1835493;78;21089;-63
2021/11/18 07:08:54;;;;;;;36.85;16.40;;;;;;;12.73;41.73;102069.91;1835561;78;21058;-62
2021/11/18 07:11:25;;;;;;;43.80;15.63;;;;;;;13.20;41.66;102073.45;1835621;78;21481;-63
2021/11/18 07:13:55;;;;;;;39.13;15.00;;;;;;;13.50;40.08;102066.88;1835409;77;21054;-63
2021/11/18 07:16:25;;;;;;;49.03;19.48;;;;;;;14.00;40.46;102072.41;1835457;78;21525;-62
2021/11/18 07:18:55;;;;;;;37.23;16.02;;;;;;;14.43;39.80;102062.17;1835470;78;21508;-62
2021/11/18 07:21:26;;;;;;;48.73;17.80;;;;;;;14.86;39.50;102062.02;1835482;77;21505;-63
2021/11/18 07:23:56;;;;;;;54.33;19.90;;;;;;;15.16;39.27;102067.11;1835476;77;21042;-63
2021/11/18 07:26:26;;;;;;;42.83;18.70;;;;;;;15.71;38.67;102062.34;1835534;77;21065;-63
2021/11/18 07:28:55;;;;;;;48.75;20.57;;;;;;;16.16;38.17;102056.14;1835501;78;21070;-63
2021/11/18 07:31:23;;;;;;;44.10;19.50;;;;;;;16.26;37.72;102061.92;1835480;78;21027;-62
2021/11/18 07:33:53;;;;;;;49.67;20.12;;;;;;;16.44;37.39;102060.30;1835716;77;21595;-62
2021/11/18 07:36:21;;;;;;;49.98;21.75;;;;;;;16.47;36.94;102054.85;1835441;78;21035;-63
2021/11/18 07:38:50;;;;;;;50.83;22.87;;;;;;;16.54;36.96;102056.32;1835345;77;21117;-63
2021/11/18 07:41:19;;;;;;;48.85;21.30;;;;;;;16.59;36.51;102045.47;1865812;77;21143;-63
2021/11/18 07:43:55;;;;;;;48.50;22.52;;;;;;;16.66;36.92;102039.43;1865460;77;21558;-63
2021/11/18 07:46:38;;;;;;;53.17;23.18;;;;;;;16.89;36.40;102044.59;1865415;77;21539;-62
2021/11/18 07:49:09;;;;;;;47.62;21.37;;;;;;;16.39;36.44;102048.98;1882615;76;21109;-63
2021/11/18 07:51:40;;;;;;;42.13;20.02;;;;;;;16.52;36.04;102052.84;1889763;76;21585;-62
2021/11/18 07:54:13;;;;;;;41.63;19.67;;;;;;;16.85;35.78;102047.48;1889470;76;21176;-63
2021/11/18 07:56:42;;;;;;;35.45;15.65;;;;;;;17.14;35.20;102043.03;1890123;76;21128;-63
2021/11/18 07:59:11;;;;;;;35.00;16.73;;;;;;;17.17;34.71;102036.69;1889901;76;21022;-63
2021/11/18 08:01:40;;;;;;;40.50;14.38;;;;;;;17.31;34.60;102027.60;1889871;76;21479;-63
2021/11/18 08:04:10;;;;;;;33.13;15.70;;;;;;;17.55;34.35;102030.05;1889951;76;21145;-63
2021/11/18 08:06:41;;;;;;;36.17;15.93;;;;;;;17.55;33.90;102031.38;1889363;76;21516;-63
2021/11/18 08:09:11;;;;;;;35.60;15.32;;;;;;;17.91;33.67;102023.43;1889867;76;21160;-63
2021/11/18 08:11:44;;;;;;;28.60;15.32;;;;;;;18.25;33.23;102022.20;1889247;76;21566;-63
2021/11/18 08:14:14;;;;;;;33.78;14.38;;;;;;;18.51;32.99;102012.37;1889633;76;21078;-63
2021/11/18 08:16:45;;;;;;;21.33;10.45;;;;;;;18.46;32.58;102009.11;1889735;76;21058;-63
2021/11/18 08:19:14;;;;;;;27.02;12.40;;;;;;;18.67;32.44;102015.59;1889826;76;21517;-63
2021/11/18 08:21:44;;;;;;;25.00;10.53;;;;;;;18.84;32.35;102007.56;1889751;76;21074;-63
2021/11/18 08:24:17;;;;;;;22.90;11.03;;;;;;;19.15;31.99;102005.90;1889359;76;21511;-62
2021/11/18 08:26:47;;;;;;;24.12;11.38;;;;;;;19.42;31.54;102003.51;1889661;76;21070;-63
2021/11/18 08:29:19;;;;;;;24.00;11.45;;;;;;;19.55;31.38;102005.47;1889913;76;21116;-63
2021/11/18 08:31:51;;;;;;;25.70;11.00;;;;;;;19.56;30.88;102009.39;1889924;76;21038;-63
2021/11/18 08:34:25;;;;;;;23.62;11.57;;;;;;;19.61;30.87;101999.31;1888964;76;21139;-63
2021/11/18 08:36:56;;;;;;;26.90;11.57;;;;;;;19.67;30.59;101994.94;1889345;76;21069;-64
2021/11/18 08:39:27;;;;;;;24.12;11.43;;;;;;;19.70;30.34;101996.59;1889865;76;21043;-63
2021/11/18 08:41:58;;;;;;;30.32;12.23;;;;;;;19.58;30.07;101987.94;1889867;76;21074;-63
2021/11/18 08:44:31;;;;;;;28.00;12.55;;;;;;;19.79;30.10;101986.73;1890011;76;21590;-63
2021/11/18 08:47:02;;;;;;;28.35;13.68;;;;;;;19.78;29.72;101978.32;1890141;76;21093;-63
2021/11/18 08:49:32;;;;;;;30.43;13.08;;;;;;;20.10;29.48;101976.04;1878166;76;21155;-64
2021/11/18 08:52:08;;;;;;;33.23;14.00;;;;;;;20.29;29.47;101970.44;1869659;77;21558;-63
2021/11/18 08:54:42;;;;;;;39.53;16.15;;;;;;;20.12;29.37;101978.14;1869318;77;21577;-63
2021/11/18 08:57:13;;;;;;;42.78;18.15;;;;;;;19.83;29.41;101970.91;1839308;78;21090;-63
2021/11/18 08:59:44;;;;;;;44.25;18.62;;;;;;;19.97;29.45;101973.23;1822974;77;21511;-63
2021/11/18 09:02:20;;;;;;;44.83;21.37;;;;;;;20.08;29.16;101973.94;1820001;79;21146;-63
2021/11/18 09:04:50;;;;;;;48.78;19.30;;;;;;;20.06;29.09;101970.86;1851695;77;21107;-63
2021/11/18 09:07:21;;;;;;;45.33;17.90;;;;;;;19.78;29.12;101968.12;1851790;77;21048;-63
2021/11/18 09:09:50;;;;;;;50.98;18.92;;;;;;;19.77;29.12;101964.59;1851693;77;21052;-63
2021/11/18 09:12:21;;;;;;;50.90;22.37;;;;;;;19.84;29.06;101962.40;1851627;77;21123;-63
2021/11/18 09:14:49;;;;;;;40.17;16.30;;;;;;;19.78;29.09;101954.75;1851605;77;21088;-63
2021/11/18 09:17:19;;;;;;;39.95;20.57;;;;;;;20.15;28.87;101955.23;1851717;77;21045;-63
2021/11/18 09:19:53;;;;;;;35.70;16.95;;;;;;;20.28;28.66;101957.55;1869434;76;21069;-63
2021/11/18 09:22:22;;;;;;;35.52;15.53;;;;;;;20.53;28.63;101956.06;1869914;77;21094;-63
2021/11/18 09:24:57;;;;;;;37.40;17.23;;;;;;;20.50;28.60;101952.23;1869932;77;21591;-63
2021/11/18 09:27:29;;;;;;;30.92;15.98;;;;;;;20.49;28.70;101948.70;1870056;77;21061;-63
2021/11/18 09:30:01;;;;;;;40.35;17.50;;;;;;;20.68;28.58;101949.78;1869972;77;21180;-63
2021/11/18 09:32:31;;;;;;;39.45;16.70;;;;;;;20.65;28.65;101944.61;1867666;77;21116;-63
2021/11/18 09:35:05;;;;;;;37.35;16.52;;;;;;;20.65;28.89;101939.25;1865663;77;21057;-63
2021/11/18 09:37:35;;;;;;;41.00;19.57;;;;;;;20.37;28.93;101932.91;1839115;78;21061;-64
2021/11/18 09:40:07;;;;;;;41.00;19.42;;;;;;;20.11;29.06;101933.17;1851602;77;21485;-63
2021/11/18 09:42:39;;;;;;;44.50;18.92;;;;;;;20.19;28.96;101933.55;1851757;77;21140;-63
2021/11/18 09:45:25;;;;;;;42.33;18.80;;;;;;;20.21;29.04;101925.44;1850944;77;21070;-62
2021/11/18 09:48:35;;;;;;;43.35;20.37;;;;;;;20.48;28.97;101928.73;1851714;77;21121;-64
2021/11/18 09:51:15;;;;;;;43.20;19.00;;;;;;;20.65;28.81;101928.55;1830756;77;21169;-65
2021/11/18 09:54:12;;;;;;;45.43;20.88;;;;;;;20.42;28.92;101924.63;1809281;78;21161;-63
2021/11/18 09:56:56;;;;;;;37.40;17.67;;;;;;;20.21;29.23;101926.33;1864033;76;21120;-63
2021/11/18 09:59:35;;;;;;;43.30;18.25;;;;;;;20.14;29.35;101922.75;1877790;76;21600;-63
2021/11/18 10:02:28;;;;;;;40.33;17.67;;;;;;;20.14;29.30;101918.74;1877738;76;21108;-63
2021/11/18 10:05:03;;;;;;;41.55;18.02;;;;;;;20.50;29.23;101920.12;1877733;75;21201;-63
2021/11/18 10:07:45;;;;;;;36.88;17.67;;;;;;;20.71;29.14;101921.50;1877539;76;21558;-63
2021/11/18 10:10:33;;;;;;;35.05;17.07;;;;;;;20.70;29.08;101917.09;1877791;76;21068;-63
2021/11/18 10:13:27;;;;;;;36.88;14.87;;;;;;;20.79;29.06;101914.31;1877468;76;21139;-64
2021/11/18 10:16:02;;;;;;;;;;;;;;;21.06;28.82;101915.67;1880603;76;21037;-63
2021/11/18 10:18:40;;;;;;;29.67;14.40;;;;;;;21.03;29.44;101909.20;1877874;76;20164;-65
2021/11/18 10:21:14;;;;;;;33.92;16.55;;;;;;;21.19;29.04;101903.22;1877914;76;21459;-66
2021/11/18 10:23:43;;;;;;;34.90;14.43;;;;;;;21.23;28.90;101894.97;1861690;76;21068;-66
2021/11/18 10:26:15;;;;;;;28.20;14.25;;;;;;;21.19;29.00;101892.52;1877851;76;21064;-65
2021/11/18 10:28:49;;;;;;;34.27;15.43;;;;;;;20.88;29.14;101891.42;1877866;76;21052;-64
2021/11/18 10:31:24;;;;;;;36.95;16.35;;;;;;;20.74;29.15;101889.16;1877892;76;21165;-66
2021/11/18 10:33:55;;;;;;;34.23;15.95;;;;;;;20.68;29.22;101888.23;1877440;76;21053;-66
2021/11/18 10:36:48;;;;;;;36.17;17.05;;;;;;;20.78;29.26;101881.31;1877585;76;21052;-66
2021/11/18 10:39:29;;;;;;;35.33;14.63;;;;;;;19.97;30.21;101883.68;1877873;76;21025;-66
2021/11/18 10:42:00;;;;;;;47.50;19.25;;;;;;;18.37;32.08;101880.71;1876766;76;21142;-66
2021/11/18 10:44:32;;;;;;;38.67;17.98;;;;;;;17.00;33.73;101875.64;1877724;76;21605;-66
2021/11/18 10:47:10;;;;;;;41.63;16.10;;;;;;;16.39;34.68;101870.89;1877854;76;21185;-66
2021/11/18 10:49:56;;;;;;;51.23;18.70;;;;;;;15.30;36.14;101868.45;1876712;76;21576;-66
2021/11/18 10:52:37;;;;;;;42.13;16.75;;;;;;;14.36;37.52;101864.58;1875764;76;21083;-66
2021/11/18 10:55:24;;;;;;;41.10;16.12;;;;;;;13.80;38.56;101866.55;1871449;77;21149;-66
2021/11/18 10:57:58;;;;;;;42.98;17.70;;;;;;;14.06;38.44;101860.80;1871380;77;21549;-66
2021/11/18 11:00:33;;;;;;;46.85;19.15;;;;;;;13.73;38.96;101851.79;1868663;77;21506;-65
2021/11/18 11:03:02;;;;;;;38.00;16.15;;;;;;;13.21;39.81;101852.19;1871229;77;21091;-67
2021/11/18 11:05:34;;;;;;;36.48;15.83;;;;;;;13.00;40.29;101849.29;1871350;77;21078;-65
2021/11/18 11:08:05;;;;;;;35.23;14.47;;;;;;;12.72;40.88;101855.42;1871594;77;21474;-66
2021/11/18 11:10:37;;;;;;;37.53;17.05;;;;;;;12.48;41.42;101849.56;1871408;77;21574;-65
2021/11/18 11:13:11;;;;;;;28.95;13.53;;;;;;;12.26;42.22;101850.17;1871361;77;21067;-66
2021/11/18 11:15:59;;;;;;;34.58;15.85;;;;;;;12.11;42.47;101851.94;1871281;77;21060;-65
2021/11/18 11:18:34;;;;;;;34.63;15.63;;;;;;;11.84;43.16;101851.75;1871354;77;21070;-65
2021/11/18 11:21:32;;;;;;;35.95;15.30;;;;;;;11.65;43.61;101855.77;1871352;77;21604;-65
2021/11/18 11:24:23;;;;;;;34.13;16.67;;;;;;;11.55;43.89;101852.05;1871249;77;21091;-66
2021/11/18 11:27:26;;;;;;;31.77;14.33;;;;;;;11.48;44.24;101860.16;1871317;77;21549;-65
2021/11/18 11:29:58;;;;;;;29.70;14.93;;;;;;;11.45;44.44;101854.48;1871610;77;21059;-65
2021/11/18 11:32:49;;;;;;;37.93;15.08;;;;;;;11.38;44.77;101852.47;1870733;76;21220;-65
2021/11/18 11:35:25;;;;;;;37.33;16.48;;;;;;;11.30;45.01;101849.59;1871121;77;21091;-66